sensor_id;sensor_type;location;lat;lon;timestamp;temperature;humidity
6018;DHT22;3037;51.068;13.780;2023-04-03T00:01:28;5.20;1.00
6018;DHT22;3037;51.068;13.780;2023-04-03T00:03:53;3.70;1.00
6018;DHT22;3037;51.068;13.780;2023-04-03T00:06:20;3.80;1.00
6018;DHT22;3037;51.068;13.780;2023-04-03T00:08:45;3.50;1.00
6018;DHT22;3037;51.068;13.780;2023-04-03T00:11:11;3.60;1.00
6018;DHT22;3037;51.068;13.780;2023-04-03T00:13:37;3.60;1.00
6018;DHT22;3037;51.068;13.780;2023-04-03T00:16:03;3.60;1.00
6018;DHT22;3037;51.068;13.780;2023-04-03T00:18:30;3.60;1.00
6018;DHT22;3037;51.068;13.780;2023-04-03T00:20:56;3.50;1.00
6018;DHT22;3037;51.068;13.780;2023-04-03T00:23:22;3.40;1.00
6018;DHT22;3037;51.068;13.780;2023-04-03T00:25:49;3.40;1.00
6018;DHT22;3037;51.068;13.780;2023-04-03T00:28:14;3.30;1.00
6018;DHT22;3037;51.068;13.780;2023-04-03T00:30:40;3.40;1.00
6018;DHT22;3037;51.068;13.780;2023-04-03T00:33:06;3.30;1.00
6018;DHT22;3037;51.068;13.780;2023-04-03T00:35:33;3.40;1.00
6018;DHT22;3037;51.068;13.780;2023-04-03T00:37:59;3.40;1.00
6018;DHT22;3037;51.068;13.780;2023-04-03T00:40:26;3.50;1.00
6018;DHT22;3037;51.068;13.780;2023-04-03T00:42:56;3.50;1.00
6018;DHT22;3037;51.068;13.780;2023-04-03T00:45:32;3.40;1.00
6018;DHT22;3037;51.068;13.780;2023-04-03T00:48:00;3.40;1.00
6018;DHT22;3037;51.068;13.780;2023-04-03T00:50:28;3.30;1.00
6018;DHT22;3037;51.068;13.780;2023-04-03T00:52:55;3.30;1.00
6018;DHT22;3037;51.068;13.780;2023-04-03T00:55:21;3.30;1.00
6018;DHT22;3037;51.068;13.780;2023-04-03T00:57:47;3.20;1.00
6018;DHT22;3037;51.068;13.780;2023-04-03T01:00:15;3.20;1.00
6018;DHT22;3037;51.068;13.780;2023-04-03T01:02:42;3.30;1.00
6018;DHT22;3037;51.068;13.780;2023-04-03T01:05:08;3.30;1.00
6018;DHT22;3037;51.068;13.780;2023-04-03T01:07:34;3.30;1.00
6018;DHT22;3037;51.068;13.780;2023-04-03T01:10:06;3.20;1.00
6018;DHT22;3037;51.068;13.780;2023-04-03T01:12:35;3.30;1.00
6018;DHT22;3037;51.068;13.780;2023-04-03T01:15:13;3.20;1.00
6018;DHT22;3037;51.068;13.780;2023-04-03T01:17:47;3.10;1.00
6018;DHT22;3037;51.068;13.780;2023-04-03T01:25:44;3.00;1.00
6018;DHT22;3037;51.068;13.780;2023-04-03T01:28:16;3.00;1.00
6018;DHT22;3037;51.068;13.780;2023-04-03T01:30:49;2.90;1.00
6018;DHT22;3037;51.068;13.780;2023-04-03T01:33:15;3.10;1.00
6018;DHT22;3037;51.068;13.780;2023-04-03T01:35:40;3.00;1.00
6018;DHT22;3037;51.068;13.780;2023-04-03T01:38:06;2.80;1.00
6018;DHT22;3037;51.068;13.780;2023-04-03T01:40:32;2.90;1.00
6018;DHT22;3037;51.068;13.780;2023-04-03T01:42:57;2.80;1.00
6018;DHT22;3037;51.068;13.780;2023-04-03T01:45:23;2.80;1.00
6018;DHT22;3037;51.068;13.780;2023-04-03T01:47:48;2.80;1.00
6018;DHT22;3037;51.068;13.780;2023-04-03T01:50:14;2.70;1.00
6018;DHT22;3037;51.068;13.780;2023-04-03T01:52:39;2.60;1.00
6018;DHT22;3037;51.068;13.780;2023-04-03T01:55:05;2.60;1.00
6018;DHT22;3037;51.068;13.780;2023-04-03T01:57:31;2.60;1.00
6018;DHT22;3037;51.068;13.780;2023-04-03T01:59:56;2.50;1.00
6018;DHT22;3037;51.068;13.780;2023-04-03T02:02:22;2.40;1.00
6018;DHT22;3037;51.068;13.780;2023-04-03T02:04:47;2.50;1.00
6018;DHT22;3037;51.068;13.780;2023-04-03T02:07:13;2.50;1.00
6018;DHT22;3037;51.068;13.780;2023-04-03T02:09:38;2.50;1.00
6018;DHT22;3037;51.068;13.780;2023-04-03T02:12:04;2.40;1.00
6018;DHT22;3037;51.068;13.780;2023-04-03T02:14:30;2.40;1.00
6018;DHT22;3037;51.068;13.780;2023-04-03T02:16:55;4.10;99.90
6018;DHT22;3037;51.068;13.780;2023-04-03T02:19:21;5.10;1.00
6018;DHT22;3037;51.068;13.780;2023-04-03T02:21:46;4.40;1.00
6018;DHT22;3037;51.068;13.780;2023-04-03T02:24:12;4.20;99.90
6018;DHT22;3037;51.068;13.780;2023-04-03T02:26:37;4.00;1.00
6018;DHT22;3037;51.068;13.780;2023-04-03T02:29:03;3.70;1.00
6018;DHT22;3037;51.068;13.780;2023-04-03T02:31:28;3.90;99.90
6018;DHT22;3037;51.068;13.780;2023-04-03T02:33:54;4.30;1.00
6018;DHT22;3037;51.068;13.780;2023-04-03T02:36:20;4.50;1.00
6018;DHT22;3037;51.068;13.780;2023-04-03T02:38:45;4.50;1.00
6018;DHT22;3037;51.068;13.780;2023-04-03T02:41:12;4.90;99.90
6018;DHT22;3037;51.068;13.780;2023-04-03T02:43:38;3.50;1.00
6018;DHT22;3037;51.068;13.780;2023-04-03T02:46:04;3.10;1.00
6018;DHT22;3037;51.068;13.780;2023-04-03T02:48:30;2.50;1.00
6018;DHT22;3037;51.068;13.780;2023-04-03T02:50:56;2.20;1.00
6018;DHT22;3037;51.068;13.780;2023-04-03T02:53:22;1.90;1.00
6018;DHT22;3037;51.068;13.780;2023-04-03T02:55:48;1.70;1.00
6018;DHT22;3037;51.068;13.780;2023-04-03T02:58:13;1.70;1.00
6018;DHT22;3037;51.068;13.780;2023-04-03T03:00:39;1.50;1.00
6018;DHT22;3037;51.068;13.780;2023-04-03T03:03:05;1.30;1.00
6018;DHT22;3037;51.068;13.780;2023-04-03T03:05:30;1.20;1.00
6018;DHT22;3037;51.068;13.780;2023-04-03T03:07:56;1.30;1.00
6018;DHT22;3037;51.068;13.780;2023-04-03T03:10:22;1.30;1.00
6018;DHT22;3037;51.068;13.780;2023-04-03T03:12:48;1.20;1.00
6018;DHT22;3037;51.068;13.780;2023-04-03T03:15:14;1.10;1.00
6018;DHT22;3037;51.068;13.780;2023-04-03T03:17:40;1.00;1.00
6018;DHT22;3037;51.068;13.780;2023-04-03T03:20:06;0.90;1.00
6018;DHT22;3037;51.068;13.780;2023-04-03T03:22:33;0.90;1.00
6018;DHT22;3037;51.068;13.780;2023-04-03T03:24:59;0.90;1.00
6018;DHT22;3037;51.068;13.780;2023-04-03T03:27:24;0.70;1.00
6018;DHT22;3037;51.068;13.780;2023-04-03T03:29:50;0.70;1.00
6018;DHT22;3037;51.068;13.780;2023-04-03T03:32:15;0.70;1.00
6018;DHT22;3037;51.068;13.780;2023-04-03T03:34:41;0.70;1.00
6018;DHT22;3037;51.068;13.780;2023-04-03T03:37:06;0.60;1.00
6018;DHT22;3037;51.068;13.780;2023-04-03T03:39:32;0.60;1.00
6018;DHT22;3037;51.068;13.780;2023-04-03T03:41:58;0.60;1.00
6018;DHT22;3037;51.068;13.780;2023-04-03T03:44:23;0.50;1.00
6018;DHT22;3037;51.068;13.780;2023-04-03T03:46:49;0.50;1.00
6018;DHT22;3037;51.068;13.780;2023-04-03T03:49:14;0.40;1.00
6018;DHT22;3037;51.068;13.780;2023-04-03T03:51:40;0.40;8.50
6018;DHT22;3037;51.068;13.780;2023-04-03T03:54:06;0.50;1.00
6018;DHT22;3037;51.068;13.780;2023-04-03T03:56:32;0.40;17.30
6018;DHT22;3037;51.068;13.780;2023-04-03T03:58:57;0.30;11.10
6018;DHT22;3037;51.068;13.780;2023-04-03T04:01:23;0.20;48.70
6018;DHT22;3037;51.068;13.780;2023-04-03T04:03:49;0.40;56.00
6018;DHT22;3037;51.068;13.780;2023-04-03T04:06:15;0.40;56.80
6018;DHT22;3037;51.068;13.780;2023-04-03T04:08:41;0.40;32.20
6018;DHT22;3037;51.068;13.780;2023-04-03T04:11:07;0.30;70.20
6018;DHT22;3037;51.068;13.780;2023-04-03T04:13:32;0.20;93.60
6018;DHT22;3037;51.068;13.780;2023-04-03T04:15:58;0.10;80.50
6018;DHT22;3037;51.068;13.780;2023-04-03T04:18:24;0.10;99.90
6018;DHT22;3037;51.068;13.780;2023-04-03T04:20:49;0.10;99.90
6018;DHT22;3037;51.068;13.780;2023-04-03T04:23:17;0.10;99.90
6018;DHT22;3037;51.068;13.780;2023-04-03T04:25:45;0.10;99.90
6018;DHT22;3037;51.068;13.780;2023-04-03T04:28:10;0.00;99.90
6018;DHT22;3037;51.068;13.780;2023-04-03T04:30:36;0.00;99.90
6018;DHT22;3037;51.068;13.780;2023-04-03T04:33:02;-0.10;99.90
6018;DHT22;3037;51.068;13.780;2023-04-03T04:35:28;0.00;99.90
6018;DHT22;3037;51.068;13.780;2023-04-03T04:37:53;-0.10;99.90
6018;DHT22;3037;51.068;13.780;2023-04-03T04:40:19;-0.10;99.90
6018;DHT22;3037;51.068;13.780;2023-04-03T04:42:45;-0.10;99.90
6018;DHT22;3037;51.068;13.780;2023-04-03T04:45:11;0.00;99.90
6018;DHT22;3037;51.068;13.780;2023-04-03T04:47:36;0.10;99.90
6018;DHT22;3037;51.068;13.780;2023-04-03T04:50:02;0.00;99.90
6018;DHT22;3037;51.068;13.780;2023-04-03T04:52:28;0.10;99.90
6018;DHT22;3037;51.068;13.780;2023-04-03T04:54:53;0.10;1.00
6018;DHT22;3037;51.068;13.780;2023-04-03T04:57:18;0.00;99.90
6018;DHT22;3037;51.068;13.780;2023-04-03T04:59:44;0.00;1.00
6018;DHT22;3037;51.068;13.780;2023-04-03T05:02:10;0.10;99.90
6018;DHT22;3037;51.068;13.780;2023-04-03T05:04:35;0.20;99.90
6018;DHT22;3037;51.068;13.780;2023-04-03T05:07:01;0.20;99.90
6018;DHT22;3037;51.068;13.780;2023-04-03T05:09:26;0.10;99.90
6018;DHT22;3037;51.068;13.780;2023-04-03T05:11:52;0.20;99.90
6018;DHT22;3037;51.068;13.780;2023-04-03T05:14:18;0.20;99.90
6018;DHT22;3037;51.068;13.780;2023-04-03T05:16:43;0.20;99.90
6018;DHT22;3037;51.068;13.780;2023-04-03T05:19:09;0.20;99.90
6018;DHT22;3037;51.068;13.780;2023-04-03T05:21:35;0.20;99.90
6018;DHT22;3037;51.068;13.780;2023-04-03T05:24:01;0.30;99.90
6018;DHT22;3037;51.068;13.780;2023-04-03T05:26:29;0.40;99.90
6018;DHT22;3037;51.068;13.780;2023-04-03T05:28:55;0.40;99.90
6018;DHT22;3037;51.068;13.780;2023-04-03T05:31:20;0.40;99.90
6018;DHT22;3037;51.068;13.780;2023-04-03T05:33:46;0.40;99.90
6018;DHT22;3037;51.068;13.780;2023-04-03T05:36:12;0.50;99.90
6018;DHT22;3037;51.068;13.780;2023-04-03T05:38:39;0.50;99.90
6018;DHT22;3037;51.068;13.780;2023-04-03T05:41:04;0.60;99.90
6018;DHT22;3037;51.068;13.780;2023-04-03T05:43:31;0.70;99.90
6018;DHT22;3037;51.068;13.780;2023-04-03T05:45:56;0.70;99.90
6018;DHT22;3037;51.068;13.780;2023-04-03T05:48:22;0.70;43.90
6018;DHT22;3037;51.068;13.780;2023-04-03T05:50:47;0.70;98.60
6018;DHT22;3037;51.068;13.780;2023-04-03T05:53:19;1.00;99.90
6018;DHT22;3037;51.068;13.780;2023-04-03T05:55:46;1.30;99.90
6018;DHT22;3037;51.068;13.780;2023-04-03T05:58:12;1.20;1.00
6018;DHT22;3037;51.068;13.780;2023-04-03T06:00:38;1.10;1.00
6018;DHT22;3037;51.068;13.780;2023-04-03T06:03:04;1.30;1.00
6018;DHT22;3037;51.068;13.780;2023-04-03T06:05:30;1.40;1.00
6018;DHT22;3037;51.068;13.780;2023-04-03T06:07:56;1.70;1.00
6018;DHT22;3037;51.068;13.780;2023-04-03T06:10:22;2.50;1.00
6018;DHT22;3037;51.068;13.780;2023-04-03T06:12:48;2.30;1.00
6018;DHT22;3037;51.068;13.780;2023-04-03T06:15:13;3.00;1.00
6018;DHT22;3037;51.068;13.780;2023-04-03T06:17:40;4.20;1.00
6018;DHT22;3037;51.068;13.780;2023-04-03T06:20:06;4.40;1.00
6018;DHT22;3037;51.068;13.780;2023-04-03T06:22:31;4.20;1.00
6018;DHT22;3037;51.068;13.780;2023-04-03T06:24:57;4.20;1.00
6018;DHT22;3037;51.068;13.780;2023-04-03T06:27:23;4.10;1.00
6018;DHT22;3037;51.068;13.780;2023-04-03T06:29:49;4.00;1.00
6018;DHT22;3037;51.068;13.780;2023-04-03T06:32:16;4.20;1.00
6018;DHT22;3037;51.068;13.780;2023-04-03T06:34:42;4.20;1.00
6018;DHT22;3037;51.068;13.780;2023-04-03T06:37:22;3.90;1.00
6018;DHT22;3037;51.068;13.780;2023-04-03T06:39:48;3.80;1.00
6018;DHT22;3037;51.068;13.780;2023-04-03T06:42:13;3.70;1.00
6018;DHT22;3037;51.068;13.780;2023-04-03T06:44:39;4.00;1.00
6018;DHT22;3037;51.068;13.780;2023-04-03T06:47:05;3.20;1.00
6018;DHT22;3037;51.068;13.780;2023-04-03T06:49:31;3.20;1.00
6018;DHT22;3037;51.068;13.780;2023-04-03T06:51:57;3.50;1.00
6018;DHT22;3037;51.068;13.780;2023-04-03T06:54:22;3.90;1.00
6018;DHT22;3037;51.068;13.780;2023-04-03T06:56:48;4.00;1.00
6018;DHT22;3037;51.068;13.780;2023-04-03T06:59:14;3.60;1.00
6018;DHT22;3037;51.068;13.780;2023-04-03T07:01:40;3.50;1.00
6018;DHT22;3037;51.068;13.780;2023-04-03T07:04:06;3.90;1.00
6018;DHT22;3037;51.068;13.780;2023-04-03T07:06:32;4.00;1.00
6018;DHT22;3037;51.068;13.780;2023-04-03T07:08:59;4.20;1.00
6018;DHT22;3037;51.068;13.780;2023-04-03T07:11:24;3.70;1.00
6018;DHT22;3037;51.068;13.780;2023-04-03T07:13:51;4.00;1.00
6018;DHT22;3037;51.068;13.780;2023-04-03T07:16:17;4.00;1.00
6018;DHT22;3037;51.068;13.780;2023-04-03T07:18:43;4.00;1.00
6018;DHT22;3037;51.068;13.780;2023-04-03T07:21:09;4.30;1.00
6018;DHT22;3037;51.068;13.780;2023-04-03T07:23:35;4.10;1.00
6018;DHT22;3037;51.068;13.780;2023-04-03T07:26:00;4.10;1.00
6018;DHT22;3037;51.068;13.780;2023-04-03T07:28:27;4.50;1.00
6018;DHT22;3037;51.068;13.780;2023-04-03T07:31:04;4.40;1.00
6018;DHT22;3037;51.068;13.780;2023-04-03T07:33:31;4.20;1.00
6018;DHT22;3037;51.068;13.780;2023-04-03T07:35:57;4.10;1.00
6018;DHT22;3037;51.068;13.780;2023-04-03T07:38:23;4.00;1.00
6018;DHT22;3037;51.068;13.780;2023-04-03T07:40:49;4.30;1.00
6018;DHT22;3037;51.068;13.780;2023-04-03T07:43:17;4.20;1.00
6018;DHT22;3037;51.068;13.780;2023-04-03T07:45:43;4.50;1.00
6018;DHT22;3037;51.068;13.780;2023-04-03T07:48:12;4.60;1.00
6018;DHT22;3037;51.068;13.780;2023-04-03T07:50:40;4.50;1.00
6018;DHT22;3037;51.068;13.780;2023-04-03T07:53:05;4.10;1.00
6018;DHT22;3037;51.068;13.780;2023-04-03T07:55:31;4.80;1.00
6018;DHT22;3037;51.068;13.780;2023-04-03T07:57:57;4.50;1.00
6018;DHT22;3037;51.068;13.780;2023-04-03T08:00:23;4.70;99.90
6018;DHT22;3037;51.068;13.780;2023-04-03T08:02:48;5.40;1.00
6018;DHT22;3037;51.068;13.780;2023-04-03T08:05:18;5.10;1.00
6018;DHT22;3037;51.068;13.780;2023-04-03T08:07:43;5.80;1.00
6018;DHT22;3037;51.068;13.780;2023-04-03T08:10:09;5.80;1.00
6018;DHT22;3037;51.068;13.780;2023-04-03T08:12:35;5.90;1.00
6018;DHT22;3037;51.068;13.780;2023-04-03T08:15:02;5.70;1.00
6018;DHT22;3037;51.068;13.780;2023-04-03T08:17:28;5.70;1.00
6018;DHT22;3037;51.068;13.780;2023-04-03T08:19:53;5.90;1.00
6018;DHT22;3037;51.068;13.780;2023-04-03T08:22:19;5.90;1.00
6018;DHT22;3037;51.068;13.780;2023-04-03T08:24:45;6.30;1.00
6018;DHT22;3037;51.068;13.780;2023-04-03T08:27:10;5.80;1.00
6018;DHT22;3037;51.068;13.780;2023-04-03T08:29:36;5.00;1.00
6018;DHT22;3037;51.068;13.780;2023-04-03T08:32:03;5.20;1.00
6018;DHT22;3037;51.068;13.780;2023-04-03T08:34:29;4.60;1.00
6018;DHT22;3037;51.068;13.780;2023-04-03T08:36:54;4.90;1.00
6018;DHT22;3037;51.068;13.780;2023-04-03T08:39:20;5.40;1.00
6018;DHT22;3037;51.068;13.780;2023-04-03T08:41:46;4.90;1.00
6018;DHT22;3037;51.068;13.780;2023-04-03T08:47:36;5.50;1.00
6018;DHT22;3037;51.068;13.780;2023-04-03T08:50:07;5.30;1.00
6018;DHT22;3037;51.068;13.780;2023-04-03T08:52:42;5.40;1.00
6018;DHT22;3037;51.068;13.780;2023-04-03T08:55:30;5.80;1.00
6018;DHT22;3037;51.068;13.780;2023-04-03T08:58:20;6.30;1.00
6018;DHT22;3037;51.068;13.780;2023-04-03T09:00:50;6.80;1.00
6018;DHT22;3037;51.068;13.780;2023-04-03T09:03:18;6.00;1.00
6018;DHT22;3037;51.068;13.780;2023-04-03T09:06:04;5.50;1.00
6018;DHT22;3037;51.068;13.780;2023-04-03T09:08:57;6.10;1.00
6018;DHT22;3037;51.068;13.780;2023-04-03T09:14:32;6.40;1.00
6018;DHT22;3037;51.068;13.780;2023-04-03T09:17:33;6.60;1.00
6018;DHT22;3037;51.068;13.780;2023-04-03T09:22:39;6.70;1.00
6018;DHT22;3037;51.068;13.780;2023-04-03T09:27:48;10.20;1.00
6018;DHT22;3037;51.068;13.780;2023-04-03T09:30:23;10.40;1.00
6018;DHT22;3037;51.068;13.780;2023-04-03T09:32:51;14.10;1.00
6018;DHT22;3037;51.068;13.780;2023-04-03T09:35:24;17.00;1.00
6018;DHT22;3037;51.068;13.780;2023-04-03T09:37:52;18.40;1.00
6018;DHT22;3037;51.068;13.780;2023-04-03T09:40:36;17.00;1.00
6018;DHT22;3037;51.068;13.780;2023-04-03T09:43:20;18.90;1.00
6018;DHT22;3037;51.068;13.780;2023-04-03T09:45:47;18.10;1.00
6018;DHT22;3037;51.068;13.780;2023-04-03T09:50:52;16.00;1.00
6018;DHT22;3037;51.068;13.780;2023-04-03T09:55:59;15.60;1.00
6018;DHT22;3037;51.068;13.780;2023-04-03T09:58:29;15.80;1.00
6018;DHT22;3037;51.068;13.780;2023-04-03T10:00:57;16.60;1.00
6018;DHT22;3037;51.068;13.780;2023-04-03T10:03:27;14.70;1.00
6018;DHT22;3037;51.068;13.780;2023-04-03T10:05:53;14.00;1.00
6018;DHT22;3037;51.068;13.780;2023-04-03T10:08:23;13.10;1.00
6018;DHT22;3037;51.068;13.780;2023-04-03T10:11:12;11.70;1.00
6018;DHT22;3037;51.068;13.780;2023-04-03T10:14:10;11.20;1.00
6018;DHT22;3037;51.068;13.780;2023-04-03T10:16:58;10.70;1.00
6018;DHT22;3037;51.068;13.780;2023-04-03T10:19:45;10.50;1.00
6018;DHT22;3037;51.068;13.780;2023-04-03T10:25:20;12.00;1.00
6018;DHT22;3037;51.068;13.780;2023-04-03T10:28:05;12.70;1.00
6018;DHT22;3037;51.068;13.780;2023-04-03T10:31:03;12.90;1.00
6018;DHT22;3037;51.068;13.780;2023-04-03T10:33:48;11.60;1.00
6018;DHT22;3037;51.068;13.780;2023-04-03T10:36:42;13.70;1.00
6018;DHT22;3037;51.068;13.780;2023-04-03T10:39:29;14.00;1.00
6018;DHT22;3037;51.068;13.780;2023-04-03T10:47:32;11.10;1.00
6018;DHT22;3037;51.068;13.780;2023-04-03T10:52:53;10.20;1.00
6018;DHT22;3037;51.068;13.780;2023-04-03T10:55:43;10.60;1.00
6018;DHT22;3037;51.068;13.780;2023-04-03T10:58:21;11.70;1.00
6018;DHT22;3037;51.068;13.780;2023-04-03T11:00:50;12.90;1.00
6018;DHT22;3037;51.068;13.780;2023-04-03T11:03:31;15.20;1.00
6018;DHT22;3037;51.068;13.780;2023-04-03T11:06:00;14.40;1.00
6018;DHT22;3037;51.068;13.780;2023-04-03T11:08:42;14.90;1.00
6018;DHT22;3037;51.068;13.780;2023-04-03T11:11:13;13.30;1.00
6018;DHT22;3037;51.068;13.780;2023-04-03T11:13:50;11.60;1.00
6018;DHT22;3037;51.068;13.780;2023-04-03T11:16:23;11.50;1.00
6018;DHT22;3037;51.068;13.780;2023-04-03T11:18:56;11.80;1.00
6018;DHT22;3037;51.068;13.780;2023-04-03T11:21:31;12.10;1.00
6018;DHT22;3037;51.068;13.780;2023-04-03T11:24:03;12.00;1.00
6018;DHT22;3037;51.068;13.780;2023-04-03T11:26:37;11.40;1.00
6018;DHT22;3037;51.068;13.780;2023-04-03T11:29:11;10.80;1.00
6018;DHT22;3037;51.068;13.780;2023-04-03T11:34:56;10.50;1.00
6018;DHT22;3037;51.068;13.780;2023-04-03T11:37:43;10.40;1.00
6018;DHT22;3037;51.068;13.780;2023-04-03T11:42:46;10.40;1.00
6018;DHT22;3037;51.068;13.780;2023-04-03T12:05:51;8.30;1.00
6018;DHT22;3037;51.068;13.780;2023-04-03T12:08:27;8.70;1.00
6018;DHT22;3037;51.068;13.780;2023-04-03T12:13:34;9.00;1.00
6018;DHT22;3037;51.068;13.780;2023-04-03T12:16:00;9.20;1.00
6018;DHT22;3037;51.068;13.780;2023-04-03T12:24:26;8.80;1.00
6018;DHT22;3037;51.068;13.780;2023-04-03T12:32:36;9.10;1.00
6018;DHT22;3037;51.068;13.780;2023-04-03T12:35:29;9.20;1.00
6018;DHT22;3037;51.068;13.780;2023-04-03T12:38:17;8.80;1.00
6018;DHT22;3037;51.068;13.780;2023-04-03T12:46:20;8.40;1.00
6018;DHT22;3037;51.068;13.780;2023-04-03T12:48:52;8.00;1.00
6018;DHT22;3037;51.068;13.780;2023-04-03T12:51:42;7.80;1.00
6018;DHT22;3037;51.068;13.780;2023-04-03T12:54:22;7.70;1.00
6018;DHT22;3037;51.068;13.780;2023-04-03T12:56:48;7.90;1.00
6018;DHT22;3037;51.068;13.780;2023-04-03T12:59:23;8.20;1.00
6018;DHT22;3037;51.068;13.780;2023-04-03T13:02:00;8.80;1.00
6018;DHT22;3037;51.068;13.780;2023-04-03T13:04:31;9.30;1.00
6018;DHT22;3037;51.068;13.780;2023-04-03T13:06:57;9.70;1.00
6018;DHT22;3037;51.068;13.780;2023-04-03T13:09:28;9.70;1.00
6018;DHT22;3037;51.068;13.780;2023-04-03T13:12:13;10.00;1.00
6018;DHT22;3037;51.068;13.780;2023-04-03T13:14:40;10.00;1.00
6018;DHT22;3037;51.068;13.780;2023-04-03T13:17:16;9.90;1.00
6018;DHT22;3037;51.068;13.780;2023-04-03T13:19:43;9.70;1.00
6018;DHT22;3037;51.068;13.780;2023-04-03T13:22:36;9.60;1.00
6018;DHT22;3037;51.068;13.780;2023-04-03T13:25:07;9.20;1.00
6018;DHT22;3037;51.068;13.780;2023-04-03T13:27:34;9.20;1.00
6018;DHT22;3037;51.068;13.780;2023-04-03T13:30:02;8.70;1.00
6018;DHT22;3037;51.068;13.780;2023-04-03T13:32:31;8.50;1.00
6018;DHT22;3037;51.068;13.780;2023-04-03T13:34:57;8.20;1.00
6018;DHT22;3037;51.068;13.780;2023-04-03T13:37:31;7.90;1.00
6018;DHT22;3037;51.068;13.780;2023-04-03T13:40:20;8.00;1.00
6018;DHT22;3037;51.068;13.780;2023-04-03T13:42:45;7.50;1.00
6018;DHT22;3037;51.068;13.780;2023-04-03T13:45:26;7.80;1.00
6018;DHT22;3037;51.068;13.780;2023-04-03T13:48:07;7.40;1.00
6018;DHT22;3037;51.068;13.780;2023-04-03T13:50:33;7.80;1.00
6018;DHT22;3037;51.068;13.780;2023-04-03T13:53:14;7.90;1.00
6018;DHT22;3037;51.068;13.780;2023-04-03T13:58:29;9.50;1.00
6018;DHT22;3037;51.068;13.780;2023-04-03T14:01:41;10.40;1.00
6018;DHT22;3037;51.068;13.780;2023-04-03T14:04:14;10.30;1.00
6018;DHT22;3037;51.068;13.780;2023-04-03T14:06:40;10.00;1.00
6018;DHT22;3037;51.068;13.780;2023-04-03T14:09:06;9.80;1.00
6018;DHT22;3037;51.068;13.780;2023-04-03T14:11:34;9.60;1.00
6018;DHT22;3037;51.068;13.780;2023-04-03T14:14:02;8.70;1.00
6018;DHT22;3037;51.068;13.780;2023-04-03T14:16:32;7.90;1.00
6018;DHT22;3037;51.068;13.780;2023-04-03T14:18:59;7.80;1.00
6018;DHT22;3037;51.068;13.780;2023-04-03T14:21:24;7.40;1.00
6018;DHT22;3037;51.068;13.780;2023-04-03T14:23:50;7.30;1.00
6018;DHT22;3037;51.068;13.780;2023-04-03T14:26:19;7.60;1.00
6018;DHT22;3037;51.068;13.780;2023-04-03T14:28:48;7.70;1.00
6018;DHT22;3037;51.068;13.780;2023-04-03T14:31:15;7.70;1.00
6018;DHT22;3037;51.068;13.780;2023-04-03T14:33:41;7.70;1.00
6018;DHT22;3037;51.068;13.780;2023-04-03T14:36:23;7.70;1.00
6018;DHT22;3037;51.068;13.780;2023-04-03T14:38:50;7.00;1.00
6018;DHT22;3037;51.068;13.780;2023-04-03T14:41:20;7.70;1.00
6018;DHT22;3037;51.068;13.780;2023-04-03T14:43:46;8.10;1.00
6018;DHT22;3037;51.068;13.780;2023-04-03T14:46:24;8.30;1.00
6018;DHT22;3037;51.068;13.780;2023-04-03T14:48:51;8.00;1.00
6018;DHT22;3037;51.068;13.780;2023-04-03T14:51:17;7.60;1.00
6018;DHT22;3037;51.068;13.780;2023-04-03T14:53:43;7.50;1.00
6018;DHT22;3037;51.068;13.780;2023-04-03T14:56:25;7.60;1.00
6018;DHT22;3037;51.068;13.780;2023-04-03T14:58:56;7.60;1.00
6018;DHT22;3037;51.068;13.780;2023-04-03T15:01:22;7.60;1.00
6018;DHT22;3037;51.068;13.780;2023-04-03T15:03:48;7.30;1.00
6018;DHT22;3037;51.068;13.780;2023-04-03T15:06:15;7.00;1.00
6018;DHT22;3037;51.068;13.780;2023-04-03T15:08:41;7.00;1.00
6018;DHT22;3037;51.068;13.780;2023-04-03T15:11:11;6.80;1.00
6018;DHT22;3037;51.068;13.780;2023-04-03T15:13:37;6.60;1.00
6018;DHT22;3037;51.068;13.780;2023-04-03T15:16:04;6.40;1.00
6018;DHT22;3037;51.068;13.780;2023-04-03T15:18:35;6.40;1.00
6018;DHT22;3037;51.068;13.780;2023-04-03T15:21:02;6.60;1.00
6018;DHT22;3037;51.068;13.780;2023-04-03T15:23:28;6.20;1.00
6018;DHT22;3037;51.068;13.780;2023-04-03T15:25:55;6.40;1.00
6018;DHT22;3037;51.068;13.780;2023-04-03T15:28:26;6.90;1.00
6018;DHT22;3037;51.068;13.780;2023-04-03T15:30:53;6.70;1.00
6018;DHT22;3037;51.068;13.780;2023-04-03T15:33:18;6.80;1.00
6018;DHT22;3037;51.068;13.780;2023-04-03T15:35:44;6.90;1.00
6018;DHT22;3037;51.068;13.780;2023-04-03T15:38:09;6.90;1.00
6018;DHT22;3037;51.068;13.780;2023-04-03T15:40:35;7.10;1.00
6018;DHT22;3037;51.068;13.780;2023-04-03T15:43:01;7.00;1.00
6018;DHT22;3037;51.068;13.780;2023-04-03T15:45:29;7.10;1.00
6018;DHT22;3037;51.068;13.780;2023-04-03T15:47:56;7.10;1.00
6018;DHT22;3037;51.068;13.780;2023-04-03T15:50:21;7.00;1.00
6018;DHT22;3037;51.068;13.780;2023-04-03T15:52:49;7.10;1.00
6018;DHT22;3037;51.068;13.780;2023-04-03T15:55:23;6.80;1.00
6018;DHT22;3037;51.068;13.780;2023-04-03T15:57:48;6.30;1.00
6018;DHT22;3037;51.068;13.780;2023-04-03T16:00:14;6.30;1.00
6018;DHT22;3037;51.068;13.780;2023-04-03T16:02:41;6.30;1.00
6018;DHT22;3037;51.068;13.780;2023-04-03T16:05:07;6.00;1.00
6018;DHT22;3037;51.068;13.780;2023-04-03T16:07:33;6.00;1.00
6018;DHT22;3037;51.068;13.780;2023-04-03T16:09:59;6.00;1.00
6018;DHT22;3037;51.068;13.780;2023-04-03T16:12:25;5.90;1.00
6018;DHT22;3037;51.068;13.780;2023-04-03T16:14:50;5.90;1.00
6018;DHT22;3037;51.068;13.780;2023-04-03T16:17:16;5.60;1.00
6018;DHT22;3037;51.068;13.780;2023-04-03T16:19:42;5.50;1.00
6018;DHT22;3037;51.068;13.780;2023-04-03T16:22:07;5.40;1.00
6018;DHT22;3037;51.068;13.780;2023-04-03T16:24:33;5.30;1.00
6018;DHT22;3037;51.068;13.780;2023-04-03T16:26:59;5.60;1.00
6018;DHT22;3037;51.068;13.780;2023-04-03T16:29:24;5.70;1.00
6018;DHT22;3037;51.068;13.780;2023-04-03T16:31:50;5.90;1.00
6018;DHT22;3037;51.068;13.780;2023-04-03T16:34:17;5.80;1.00
6018;DHT22;3037;51.068;13.780;2023-04-03T16:36:42;5.90;1.00
6018;DHT22;3037;51.068;13.780;2023-04-03T16:39:08;5.60;1.00
6018;DHT22;3037;51.068;13.780;2023-04-03T16:41:35;5.40;1.00
6018;DHT22;3037;51.068;13.780;2023-04-03T16:44:00;5.40;1.00
6018;DHT22;3037;51.068;13.780;2023-04-03T16:46:26;5.40;1.00
6018;DHT22;3037;51.068;13.780;2023-04-03T16:48:52;5.30;1.00
6018;DHT22;3037;51.068;13.780;2023-04-03T16:51:17;5.00;1.00
6018;DHT22;3037;51.068;13.780;2023-04-03T16:53:43;4.70;1.00
6018;DHT22;3037;51.068;13.780;2023-04-03T16:56:08;4.90;1.00
6018;DHT22;3037;51.068;13.780;2023-04-03T16:58:34;4.90;1.00
6018;DHT22;3037;51.068;13.780;2023-04-03T17:01:11;4.90;1.00
6018;DHT22;3037;51.068;13.780;2023-04-03T17:03:37;5.00;1.00
6018;DHT22;3037;51.068;13.780;2023-04-03T17:06:03;5.10;1.00
6018;DHT22;3037;51.068;13.780;2023-04-03T17:08:28;5.50;1.00
6018;DHT22;3037;51.068;13.780;2023-04-03T17:10:54;5.60;1.00
6018;DHT22;3037;51.068;13.780;2023-04-03T17:13:20;5.10;1.00
6018;DHT22;3037;51.068;13.780;2023-04-03T17:15:45;4.50;1.00
6018;DHT22;3037;51.068;13.780;2023-04-03T17:18:11;4.40;1.00
6018;DHT22;3037;51.068;13.780;2023-04-03T17:20:36;4.50;1.00
6018;DHT22;3037;51.068;13.780;2023-04-03T17:23:04;6.00;99.90
6018;DHT22;3037;51.068;13.780;2023-04-03T17:25:29;5.20;1.00
6018;DHT22;3037;51.068;13.780;2023-04-03T17:27:55;4.40;1.00
6018;DHT22;3037;51.068;13.780;2023-04-03T17:30:21;4.00;1.00
6018;DHT22;3037;51.068;13.780;2023-04-03T17:32:47;3.80;1.00
6018;DHT22;3037;51.068;13.780;2023-04-03T17:35:12;3.70;1.00
6018;DHT22;3037;51.068;13.780;2023-04-03T17:37:38;3.70;1.00
6018;DHT22;3037;51.068;13.780;2023-04-03T17:40:04;3.60;1.00
6018;DHT22;3037;51.068;13.780;2023-04-03T17:42:29;3.60;1.00
6018;DHT22;3037;51.068;13.780;2023-04-03T17:44:56;3.50;1.00
6018;DHT22;3037;51.068;13.780;2023-04-03T17:47:22;3.50;1.00